sensor_id;sensor_type;location;lat;lon;timestamp;pressure;altitude;pressure_sealevel;temperature;humidity
78843;BME280;70542;53.774;-0.352;2024-02-21T00:05:34;101710;;;12.319;46
78843;BME280;70542;53.774;-0.352;2024-02-21T00:12:03;101720;;;12.799;46
78843;BME280;70542;53.774;-0.352;2024-02-21T00:18:00;101710;;;12.257;47
78843;BME280;70542;53.774;-0.352;2024-02-21T00:23:57;101690;;;11.237;50
78843;BME280;70542;53.774;-0.352;2024-02-21T00:30:05;101680;;;12.157;48
78843;BME280;70542;53.774;-0.352;2024-02-21T00:36:18;101690;;;12.299;47
78843;BME280;70542;53.774;-0.352;2024-02-21T00:42:15;101670;;;12.63;46
78843;BME280;70542;53.774;-0.352;2024-02-21T00:48:24;101670;;;11.953;47
78843;BME280;70542;53.774;-0.352;2024-02-21T00:54:24;101660;;;12.607;46
78843;BME280;70542;53.774;-0.352;2024-02-21T01:00:46;101650;;;12.542;46
78843;BME280;70542;53.774;-0.352;2024-02-21T01:06:48;101640;;;12.688;45
78843;BME280;70542;53.774;-0.352;2024-02-21T01:13:03;101640;;;11.727;48
78843;BME280;70542;53.774;-0.352;2024-02-21T01:19:00;101640;;;12.79;46
78843;BME280;70542;53.774;-0.352;2024-02-21T01:25:09;101610;;;12.431;46
78843;BME280;70542;53.774;-0.352;2024-02-21T01:31:18;101570;;;12.073;48
78843;BME280;70542;53.774;-0.352;2024-02-21T01:37:15;101570;;;11.623;48
78843;BME280;70542;53.774;-0.352;2024-02-21T01:43:29;101570;;;12.178;47
78843;BME280;70542;53.774;-0.352;2024-02-21T01:49:38;101570;;;12.633;46
78843;BME280;70542;53.774;-0.352;2024-02-21T01:55:36;101540;;;12.555;46
78843;BME280;70542;53.774;-0.352;2024-02-21T02:01:46;101530;;;12.272;46
78843;BME280;70542;53.774;-0.352;2024-02-21T02:07:43;101510;;;11.732;48
78843;BME280;70542;53.774;-0.352;2024-02-21T02:13:40;101480;;;12.253;48
78843;BME280;70542;53.774;-0.352;2024-02-21T02:19:52;101490;;;12.051;48
78843;BME280;70542;53.774;-0.352;2024-02-21T02:26:01;101470;;;11.666;49
78843;BME280;70542;53.774;-0.352;2024-02-21T02:32:18;101460;;;12.132;49
78843;BME280;70542;53.774;-0.352;2024-02-21T02:38:27;101460;;;12.428;48
78843;BME280;70542;53.774;-0.352;2024-02-21T02:44:36;101440;;;12.801;47
78843;BME280;70542;53.774;-0.352;2024-02-21T02:50:45;101430;;;12.76;47
78843;BME280;70542;53.774;-0.352;2024-02-21T02:57:07;101430;;;12.99;47
78843;BME280;70542;53.774;-0.352;2024-02-21T03:03:24;101420;;;12.777;48
78843;BME280;70542;53.774;-0.352;2024-02-21T03:09:25;101400;;;12.155;49
78843;BME280;70542;53.774;-0.352;2024-02-21T03:15:41;101380;;;11.788;49
78843;BME280;70542;53.774;-0.352;2024-02-21T03:21:51;101350;;;12.075;49
78843;BME280;70542;53.774;-0.352;2024-02-21T03:28:00;101340;;;12.178;49
78843;BME280;70542;53.774;-0.352;2024-02-21T03:33:57;101320;;;11.411;52
78843;BME280;70542;53.774;-0.352;2024-02-21T03:39:59;101300;;;10.881;53
78843;BME280;70542;53.774;-0.352;2024-02-21T03:45:57;101270;;;12.005;50
78843;BME280;70542;53.774;-0.352;2024-02-21T03:51:54;101260;;;12.412;49
78843;BME280;70542;53.774;-0.352;2024-02-21T03:58:14;101240;;;12.321;49
78843;BME280;70542;53.774;-0.352;2024-02-21T04:04:33;101220;;;12.228;49
78843;BME280;70542;53.774;-0.352;2024-02-21T04:10:46;101190;;;12.297;49
78843;BME280;70542;53.774;-0.352;2024-02-21T04:17:12;101180;;;12.187;50
78843;BME280;70542;53.774;-0.352;2024-02-21T04:23:34;101160;;;11.942;50
78843;BME280;70542;53.774;-0.352;2024-02-21T04:29:31;101160;;;12.177;50
78843;BME280;70542;53.774;-0.352;2024-02-21T04:35:33;101150;;;12.441;50
78843;BME280;70542;53.774;-0.352;2024-02-21T04:41:49;101140;;;12.268;51
78843;BME280;70542;53.774;-0.352;2024-02-21T04:48:09;101130;;;13.03;49
78843;BME280;70542;53.774;-0.352;2024-02-21T04:54:06;101100;;;12.903;49
78843;BME280;70542;53.774;-0.352;2024-02-21T05:00:09;101090;;;12.139;51
78843;BME280;70542;53.774;-0.352;2024-02-21T05:06:23;101080;;;12.601;50
78843;BME280;70542;53.774;-0.352;2024-02-21T05:12:21;101060;;;11.781;52
78843;BME280;70542;53.774;-0.352;2024-02-21T05:18:34;101040;;;11.383;53
78843;BME280;70542;53.774;-0.352;2024-02-21T05:24:44;101020;;;11.39;54
78843;BME280;70542;53.774;-0.352;2024-02-21T05:30:40;100990;;;11.304;53
78843;BME280;70542;53.774;-0.352;2024-02-21T05:36:49;100970;;;12.155;52
78843;BME280;70542;53.774;-0.352;2024-02-21T05:42:58;100950;;;12.056;52
78843;BME280;70542;53.774;-0.352;2024-02-21T05:49:12;100920;;;11.323;53
78843;BME280;70542;53.774;-0.352;2024-02-21T05:55:31;100900;;;11.512;53
78843;BME280;70542;53.774;-0.352;2024-02-21T06:01:29;100880;;;12.162;52
78843;BME280;70542;53.774;-0.352;2024-02-21T06:07:38;100870;;;11.843;52
78843;BME280;70542;53.774;-0.352;2024-02-21T06:13:53;100860;;;11.499;52
78843;BME280;70542;53.774;-0.352;2024-02-21T06:20:08;100850;;;11.885;52
78843;BME280;70542;53.774;-0.352;2024-02-21T06:26:19;100820;;;11.914;52
78843;BME280;70542;53.774;-0.352;2024-02-21T06:32:33;100800;;;12.24;52
78843;BME280;70542;53.774;-0.352;2024-02-21T06:38:31;100780;;;11.54;54
78843;BME280;70542;53.774;-0.352;2024-02-21T06:44:47;100770;;;10.477;55
78843;BME280;70542;53.774;-0.352;2024-02-21T06:51:07;100760;;;11.365;53
78843;BME280;70542;53.774;-0.352;2024-02-21T06:57:15;100740;;;11.843;51
78843;BME280;70542;53.774;-0.352;2024-02-21T07:03:28;100720;;;12.237;50
78843;BME280;70542;53.774;-0.352;2024-02-21T07:09:25;100710;;;11.94;51
78843;BME280;70542;53.774;-0.352;2024-02-21T07:15:21;100700;;;11.437;51
78843;BME280;70542;53.774;-0.352;2024-02-21T07:21:36;100660;;;10.956;52
78843;BME280;70542;53.774;-0.352;2024-02-21T07:27:33;100650;;;11.604;51
78843;BME280;70542;53.774;-0.352;2024-02-21T07:33:47;100640;;;11.043;52
78843;BME280;70542;53.774;-0.352;2024-02-21T07:40:00;100620;;;10.188;54
78843;BME280;70542;53.774;-0.352;2024-02-21T07:46:19;100610;;;11.198;53
78843;BME280;70542;53.774;-0.352;2024-02-21T07:52:25;100580;;;11.017;55
78843;BME280;70542;53.774;-0.352;2024-02-21T07:58:22;100560;;;9.809;55
78843;BME280;70542;53.774;-0.352;2024-02-21T08:04:47;100540;;;10.656;54
78843;BME280;70542;53.774;-0.352;2024-02-21T08:11:01;100530;;;10.309;54
78843;BME280;70542;53.774;-0.352;2024-02-21T08:17:09;100510;;;11.188;53
78843;BME280;70542;53.774;-0.352;2024-02-21T08:23:27;100490;;;11.058;55
78843;BME280;70542;53.774;-0.352;2024-02-21T08:29:35;100470;;;10.345;55
78843;BME280;70542;53.774;-0.352;2024-02-21T08:35:38;100450;;;10.205;55
78843;BME280;70542;53.774;-0.352;2024-02-21T08:41:50;100430;;;10.904;54
78843;BME280;70542;53.774;-0.352;2024-02-21T08:48:11;100410;;;10.827;54
78843;BME280;70542;53.774;-0.352;2024-02-21T08:54:20;100390;;;10.627;55
78843;BME280;70542;53.774;-0.352;2024-02-21T09:00:28;100370;;;10.29;55
78843;BME280;70542;53.774;-0.352;2024-02-21T09:06:49;100350;;;10.622;55
78843;BME280;70542;53.774;-0.352;2024-02-21T09:13:20;100320;;;10.558;55
78843;BME280;70542;53.774;-0.352;2024-02-21T09:19:28;100310;;;10.242;56
78843;BME280;70542;53.774;-0.352;2024-02-21T09:25:28;100290;;;10.377;56
78843;BME280;70542;53.774;-0.352;2024-02-21T09:31:37;100260;;;10.727;56
78843;BME280;70542;53.774;-0.352;2024-02-21T09:37:33;100230;;;9.402;59
78843;BME280;70542;53.774;-0.352;2024-02-21T09:43:46;100220;;;9.881;58
78843;BME280;70542;53.774;-0.352;2024-02-21T09:49:51;100220;;;9.958;57
78843;BME280;70542;53.774;-0.352;2024-02-21T09:55:35;100190;;;9.388;59
78843;BME280;70542;53.774;-0.352;2024-02-21T10:01:57;100150;;;10.765;56
78843;BME280;70542;53.774;-0.352;2024-02-21T10:08:01;100130;;;10.624;56
78843;BME280;70542;53.774;-0.352;2024-02-21T10:14:18;100110;;;10.72;55
78843;BME280;70542;53.774;-0.352;2024-02-21T10:20:30;100080;;;10.797;56
78843;BME280;70542;53.774;-0.352;2024-02-21T10:26:30;100060;;;10.834;56
78843;BME280;70542;53.774;-0.352;2024-02-21T10:32:26;100060;;;10.618;57
78843;BME280;70542;53.774;-0.352;2024-02-21T10:38:23;100030;;;10.684;56
78843;BME280;70542;53.774;-0.352;2024-02-21T10:44:41;99980;;;11.023;55
78843;BME280;70542;53.774;-0.352;2024-02-21T10:50:55;99950;;;11.185;55
78843;BME280;70542;53.774;-0.352;2024-02-21T10:56:53;99940;;;11.388;55
78843;BME280;70542;53.774;-0.352;2024-02-21T11:03:04;99940;;;11.197;55
78843;BME280;70542;53.774;-0.352;2024-02-21T11:09:13;99920;;;10.898;56
78843;BME280;70542;53.774;-0.352;2024-02-21T11:15:26;99910;;;11.418;56
78843;BME280;70542;53.774;-0.352;2024-02-21T11:21:33;99900;;;11.633;54
78843;BME280;70542;53.774;-0.352;2024-02-21T11:27:34;99870;;;10.905;57
78843;BME280;70542;53.774;-0.352;2024-02-21T11:33:33;99850;;;11.057;56
78843;BME280;70542;53.774;-0.352;2024-02-21T11:39:42;99830;;;10.996;58
78843;BME280;70542;53.774;-0.352;2024-02-21T11:45:42;99810;;;10.171;59
78843;BME280;70542;53.774;-0.352;2024-02-21T11:51:57;99800;;;10.801;58
78843;BME280;70542;53.774;-0.352;2024-02-21T11:58:06;99780;;;11.049;57
78843;BME280;70542;53.774;-0.352;2024-02-21T12:04:15;99750;;;10.154;60
78843;BME280;70542;53.774;-0.352;2024-02-21T12:10:13;99740;;;10.341;59
78843;BME280;70542;53.774;-0.352;2024-02-21T12:16:11;99720;;;10.86;59
78843;BME280;70542;53.774;-0.352;2024-02-21T12:22:17;99700;;;10.591;59
78843;BME280;70542;53.774;-0.352;2024-02-21T12:28:14;99690;;;10.144;61
78843;BME280;70542;53.774;-0.352;2024-02-21T12:34:23;99660;;;10.359;60
78843;BME280;70542;53.774;-0.352;2024-02-21T12:40:19;99640;;;10.578;59
78843;BME280;70542;53.774;-0.352;2024-02-21T12:46:28;99600;;;10.561;59
78843;BME280;70542;53.774;-0.352;2024-02-21T12:52:25;99590;;;10.154;59
78843;BME280;70542;53.774;-0.352;2024-02-21T12:58:31;99560;;;11.433;57
78843;BME280;70542;53.774;-0.352;2024-02-21T13:04:28;99550;;;11.024;58
78843;BME280;70542;53.774;-0.352;2024-02-21T13:10:37;99520;;;11.244;58
78843;BME280;70542;53.774;-0.352;2024-02-21T13:16:34;99490;;;11.106;59
78843;BME280;70542;53.774;-0.352;2024-02-21T13:22:31;99470;;;10.567;60
78843;BME280;70542;53.774;-0.352;2024-02-21T13:28:40;99460;;;10.862;58
78843;BME280;70542;53.774;-0.352;2024-02-21T13:34:37;99450;;;11.401;57
78843;BME280;70542;53.774;-0.352;2024-02-21T13:40:49;99430;;;11.261;58
78843;BME280;70542;53.774;-0.352;2024-02-21T13:47:02;99410;;;11.533;58
78843;BME280;70542;53.774;-0.352;2024-02-21T13:52:59;99410;;;11.469;59
78843;BME280;70542;53.774;-0.352;2024-02-21T13:58:57;99400;;;11.237;59
78843;BME280;70542;53.774;-0.352;2024-02-21T14:04:54;99380;;;12.049;56
78843;BME280;70542;53.774;-0.352;2024-02-21T14:10:33;99360;;;11.87;56
78843;BME280;70542;53.774;-0.352;2024-02-21T14:16:32;99360;;;11.771;57
78843;BME280;70542;53.774;-0.352;2024-02-21T14:22:41;99360;;;11.434;58
78843;BME280;70542;53.774;-0.352;2024-02-21T14:28:50;99340;;;12.152;55
78843;BME280;70542;53.774;-0.352;2024-02-21T14:34:58;99340;;;12.251;55
78843;BME280;70542;53.774;-0.352;2024-02-21T14:40:55;99340;;;12.355;55
78843;BME280;70542;53.774;-0.352;2024-02-21T14:46:52;99350;;;12.471;55
78843;BME280;70542;53.774;-0.352;2024-02-21T14:53:01;99350;;;12.566;55
78843;BME280;70542;53.774;-0.352;2024-02-21T14:59:10;99340;;;12.955;53
78843;BME280;70542;53.774;-0.352;2024-02-21T15:05:25;99330;;;12.647;54
78843;BME280;70542;53.774;-0.352;2024-02-21T15:11:34;99320;;;12.777;54
78843;BME280;70542;53.774;-0.352;2024-02-21T15:17:32;99310;;;12.376;55
78843;BME280;70542;53.774;-0.352;2024-02-21T15:23:51;99330;;;12.972;54
78843;BME280;70542;53.774;-0.352;2024-02-21T15:30:01;99320;;;12.285;55
78843;BME280;70542;53.774;-0.352;2024-02-21T15:36:10;99340;;;11.992;58
78843;BME280;70542;53.774;-0.352;2024-02-21T15:42:07;99340;;;12.665;56
78843;BME280;70542;53.774;-0.352;2024-02-21T15:48:16;99310;;;14.063;52
78843;BME280;70542;53.774;-0.352;2024-02-21T15:54:13;99300;;;13.79;52
78843;BME280;70542;53.774;-0.352;2024-02-21T16:00:11;99300;;;13.673;53
78843;BME280;70542;53.774;-0.352;2024-02-21T16:06:08;99300;;;13.596;54
78843;BME280;70542;53.774;-0.352;2024-02-21T16:12:17;99310;;;13.105;55
78843;BME280;70542;53.774;-0.352;2024-02-21T16:18:14;99310;;;12.576;57
78843;BME280;70542;53.774;-0.352;2024-02-21T16:24:23;99330;;;12.517;57
78843;BME280;70542;53.774;-0.352;2024-02-21T16:30:20;99340;;;12.847;56
78843;BME280;70542;53.774;-0.352;2024-02-21T16:36:28;99350;;;12.623;57
78843;BME280;70542;53.774;-0.352;2024-02-21T16:42:26;99380;;;12.511;57
78843;BME280;70542;53.774;-0.352;2024-02-21T16:48:34;99360;;;12.992;56
78843;BME280;70542;53.774;-0.352;2024-02-21T16:54:54;99370;;;13.589;54
78843;BME280;70542;53.774;-0.352;2024-02-21T17:01:03;99370;;;14.93;50
78843;BME280;70542;53.774;-0.352;2024-02-21T17:07:00;99380;;;13.58;54
78843;BME280;70542;53.774;-0.352;2024-02-21T17:12:57;99390;;;13.542;54
78843;BME280;70542;53.774;-0.352;2024-02-21T17:19:06;99390;;;13.488;54
78843;BME280;70542;53.774;-0.352;2024-02-21T17:25:15;99390;;;12.957;55
78843;BME280;70542;53.774;-0.352;2024-02-21T17:31:12;99390;;;12.137;57
78843;BME280;70542;53.774;-0.352;2024-02-21T17:37:08;99390;;;11.495;60
78843;BME280;70542;53.774;-0.352;2024-02-21T17:43:05;99410;;;11.28;62
78843;BME280;70542;53.774;-0.352;2024-02-21T17:49:02;99420;;;11.227;62
78843;BME280;70542;53.774;-0.352;2024-02-21T17:55:11;99390;;;10.324;63
78843;BME280;70542;53.774;-0.352;2024-02-21T18:01:08;99400;;;10.89;62
78843;BME280;70542;53.774;-0.352;2024-02-21T18:07:06;99420;;;9.874;63
78843;BME280;70542;53.774;-0.352;2024-02-21T18:13:15;99410;;;10.02;63
78843;BME280;70542;53.774;-0.352;2024-02-21T18:19:12;99410;;;10.086;61
78843;BME280;70542;53.774;-0.352;2024-02-21T18:25:10;99420;;;10.8;59
78843;BME280;70542;53.774;-0.352;2024-02-21T18:31:13;99440;;;11.826;57
78843;BME280;70542;53.774;-0.352;2024-02-21T18:37:10;99440;;;11.15;57
78843;BME280;70542;53.774;-0.352;2024-02-21T18:43:16;99450;;;11.417;56
78843;BME280;70542;53.774;-0.352;2024-02-21T18:49:21;99430;;;12.251;54
78843;BME280;70542;53.774;-0.352;2024-02-21T18:55:31;99440;;;12.728;51
78843;BME280;70542;53.774;-0.352;2024-02-21T19:01:29;99440;;;12.803;51
78843;BME280;70542;53.774;-0.352;2024-02-21T19:07:26;99450;;;13.064;50
78843;BME280;70542;53.774;-0.352;2024-02-21T19:13:36;99440;;;13.405;48
78843;BME280;70542;53.774;-0.352;2024-02-21T19:19:45;99440;;;13.126;49
78843;BME280;70542;53.774;-0.352;2024-02-21T19:25:42;99440;;;13.07;49
78843;BME280;70542;53.774;-0.352;2024-02-21T19:31:39;99440;;;11.681;53
78843;BME280;70542;53.774;-0.352;2024-02-21T19:37:58;99460;;;11.203;54
78843;BME280;70542;53.774;-0.352;2024-02-21T19:44:07;99460;;;11.775;52
78843;BME280;70542;53.774;-0.352;2024-02-21T19:50:05;99460;;;13.778;47
78843;BME280;70542;53.774;-0.352;2024-02-21T19:56:19;99450;;;14.653;44
78843;BME280;70542;53.774;-0.352;2024-02-21T20:02:16;99450;;;15.375;42
78843;BME280;70542;53.774;-0.352;2024-02-21T20:08:18;99430;;;15.569;42
78843;BME280;70542;53.774;-0.352;2024-02-21T20:14:31;99430;;;15.041;42
78843;BME280;70542;53.774;-0.352;2024-02-21T20:20:32;99440;;;14.88;43
78843;BME280;70542;53.774;-0.352;2024-02-21T20:27:04;99450;;;14.579;44
78843;BME280;70542;53.774;-0.352;2024-02-21T20:33:20;99450;;;14.46;44
78843;BME280;70542;53.774;-0.352;2024-02-21T20:39:29;99460;;;13.886;45
78843;BME280;70542;53.774;-0.352;2024-02-21T20:45:26;99440;;;13.374;45
78843;BME280;70542;53.774;-0.352;2024-02-21T20:51:34;99440;;;14.145;44
78843;BME280;70542;53.774;-0.352;2024-02-21T20:57:32;99440;;;14.562;43
78843;BME280;70542;53.774;-0.352;2024-02-21T21:03:46;99440;;;14.088;44
78843;BME280;70542;53.774;-0.352;2024-02-21T21:09:42;99440;;;14.476;43
78843;BME280;70542;53.774;-0.352;2024-02-21T21:15:44;99440;;;14.933;42
78843;BME280;70542;53.774;-0.352;2024-02-21T21:21:45;99440;;;14.821;42
78843;BME280;70542;53.774;-0.352;2024-02-21T21:27:54;99440;;;15.139;41
78843;BME280;70542;53.774;-0.352;2024-02-21T21:34:10;99440;;;15.174;41
78843;BME280;70542;53.774;-0.352;2024-02-21T21:40:19;99440;;;14.941;42
78843;BME280;70542;53.774;-0.352;2024-02-21T21:46:15;99430;;;15.425;41
78843;BME280;70542;53.774;-0.352;2024-02-21T21:52:25;99430;;;15.279;41
78843;BME280;70542;53.774;-0.352;2024-02-21T21:58:43;99420;;;15.701;41
78843;BME280;70542;53.774;-0.352;2024-02-21T22:04:57;99410;;;14.941;42
78843;BME280;70542;53.774;-0.352;2024-02-21T22:10:54;99400;;;14.793;42
78843;BME280;70542;53.774;-0.352;2024-02-21T22:17:13;99400;;;15.639;41
78843;BME280;70542;53.774;-0.352;2024-02-21T22:23:10;99390;;;15.544;41
78843;BME280;70542;53.774;-0.352;2024-02-21T22:29:19;99390;;;15.785;40
78843;BME280;70542;53.774;-0.352;2024-02-21T22:35:46;99380;;;15.487;41
78843;BME280;70542;53.774;-0.352;2024-02-21T22:41:51;99380;;;14.42;44
78843;BME280;70542;53.774;-0.352;2024-02-21T22:48:00;99370;;;14.457;44
78843;BME280;70542;53.774;-0.352;2024-02-21T22:53:57;99370;;;14.036;45
78843;BME280;70542;53.774;-0.352;2024-02-21T23:00:07;99360;;;14.296;45
78843;BME280;70542;53.774;-0.352;2024-02-21T23:06:16;99360;;;14.464;44
78843;BME280;70542;53.774;-0.352;2024-02-21T23:12:13;99350;;;13.651;46
78843;BME280;70542;53.774;-0.352;2024-02-21T23:18:25;99330;;;13.78;45
78843;BME280;70542;53.774;-0.352;2024-02-21T23:24:26;99340;;;13.502;48
78843;BME280;70542;53.774;-0.352;2024-02-21T23:30:39;99340;;;12.88;47
78843;BME280;70542;53.774;-0.352;2024-02-21T23:36:40;99350;;;12.561;47
78843;BME280;70542;53.774;-0.352;2024-02-21T23:42:53;99350;;;13.244;46
78843;BME280;70542;53.774;-0.352;2024-02-21T23:49:26;99330;;;13.595;45
78843;BME280;70542;53.774;-0.352;2024-02-21T23:55:32;99320;;;13.624;45
